Jericho, NY (11753)

1:36 AM EST on January 28, 2015 (GMT -0500)
Jericho | Change Station
CLOSE
Current Station
Personal Weather Station
Location: Jericho, NY
Elevation: 190 ft
Nearby Weather Stations

Elev 190 ft 40.79 °N, 73.52 °W | Updated 7 minutes ago

Overcast
Overcast
14.2 °F
Feels Like 8 °F
N
3.7
Wind Variable Wind from NNE

Today
High -- | Low -- °F
--% Chance of Precip.
Yesterday
High -- | Low -- °F
Precip. -- in
7:08 AM 5:06 PM
First Quarter, 61% visible
Pressure 29.84 in
Visibility 10.0 miles
Clouds Overcast 5000 ft
Windchill 8 °F
Dew Point 11 °F
Humidity 88%
Rainfall 0.00 in
Snow Depth Not available.
UV 0 out of 12
Pollen .10 out of 12
Air Quality Not available.
Flu Activity Not available.
METAR KFRG 280553Z AUTO 33011G16KT 10SM OVC050 M08/M15 A2984 RMK AO2 SLP105 T10781150 11044 21078 51019 $

More Conditions Fewer Conditions

Pressure 29.84 in
Visibility 10.0 miles
Clouds Overcast 5000 ft
Windchill 8 °F
Dew Point 11 °F
Humidity 88%
Rainfall 0.00 in
Snow Depth Not available.
UV 0 out of 12
Pollen .10 out of 12
Air Quality Not available.
Flu Activity Not available.
METAR KFRG 280553Z AUTO 33011G16KT 10SM OVC050 M08/M15 A2984 RMK AO2 SLP105 T10781150 11044 21078 51019 $

More Conditions Fewer Conditions

10-Day Weather Forecast

Almanac

Astronomy

Jan. 28, 2015 Rise Set
Actual Time
Civil Twilight
Nautical Twilight
Astronomical Twilight
Moon
Length of Visible Light
Length of Day
Tomorrow will be .
, % of the Moon is Illuminated

Today's Extremes

State Highs State Lows

Community

WunderPhotos

Upload Photos

1,791,112 photos uploaded!

WunderBlogs® & News

Nearby

Air Quality

  Air Quality AQ Index Pollutant
Not available.

Snow Depth

Station Depth Elevation

Earthquake Activity

City Distance Mag. Time & Date
Minimum magnitude displayed is 2.5.

Coastal Water Temperatures

Place Temperature

Nearby Weather Stations